sensor_id;sensor_type;location;lat;lon;timestamp;P1;durP1;ratioP1;P2;durP2;ratioP2
71187;SDS011;58893;53.130;8.158;2022-11-11T00:01:35;9.17;;;3.10;;
71187;SDS011;58893;53.130;8.158;2022-11-11T00:04:01;9.57;;;2.50;;
71187;SDS011;58893;53.130;8.158;2022-11-11T00:06:26;8.93;;;2.83;;
71187;SDS011;58893;53.130;8.158;2022-11-11T00:08:52;11.83;;;3.87;;
71187;SDS011;58893;53.130;8.158;2022-11-11T00:11:18;13.93;;;3.07;;
71187;SDS011;58893;53.130;8.158;2022-11-11T00:13:43;5.47;;;2.97;;
71187;SDS011;58893;53.130;8.158;2022-11-11T00:16:13;7.70;;;3.20;;
71187;SDS011;58893;53.130;8.158;2022-11-11T00:18:40;8.63;;;2.80;;
71187;SDS011;58893;53.130;8.158;2022-11-11T00:21:25;5.07;;;2.87;;
71187;SDS011;58893;53.130;8.158;2022-11-11T00:27:06;7.23;;;2.90;;
71187;SDS011;58893;53.130;8.158;2022-11-11T00:29:32;4.70;;;2.60;;
71187;SDS011;58893;53.130;8.158;2022-11-11T00:31:58;7.23;;;3.17;;
71187;SDS011;58893;53.130;8.158;2022-11-11T00:34:42;5.20;;;2.50;;
71187;SDS011;58893;53.130;8.158;2022-11-11T00:37:28;11.57;;;3.07;;
71187;SDS011;58893;53.130;8.158;2022-11-11T00:39:53;12.07;;;3.07;;
71187;SDS011;58893;53.130;8.158;2022-11-11T00:42:19;12.83;;;2.53;;
71187;SDS011;58893;53.130;8.158;2022-11-11T00:44:44;6.80;;;3.37;;
71187;SDS011;58893;53.130;8.158;2022-11-11T00:47:10;5.13;;;2.63;;
71187;SDS011;58893;53.130;8.158;2022-11-11T00:49:54;11.33;;;3.20;;
71187;SDS011;58893;53.130;8.158;2022-11-11T00:52:39;7.37;;;3.40;;
71187;SDS011;58893;53.130;8.158;2022-11-11T00:55:04;5.60;;;2.47;;
71187;SDS011;58893;53.130;8.158;2022-11-11T00:57:31;8.97;;;2.83;;
71187;SDS011;58893;53.130;8.158;2022-11-11T00:59:56;8.40;;;3.30;;
71187;SDS011;58893;53.130;8.158;2022-11-11T01:02:22;8.20;;;3.20;;
71187;SDS011;58893;53.130;8.158;2022-11-11T01:04:48;14.20;;;3.40;;
71187;SDS011;58893;53.130;8.158;2022-11-11T01:07:13;7.57;;;3.43;;
71187;SDS011;58893;53.130;8.158;2022-11-11T01:09:39;15.57;;;4.10;;
71187;SDS011;58893;53.130;8.158;2022-11-11T01:12:04;9.10;;;3.70;;
71187;SDS011;58893;53.130;8.158;2022-11-11T01:14:30;5.13;;;3.03;;
71187;SDS011;58893;53.130;8.158;2022-11-11T01:16:56;7.57;;;4.00;;
71187;SDS011;58893;53.130;8.158;2022-11-11T01:19:21;8.23;;;3.70;;
71187;SDS011;58893;53.130;8.158;2022-11-11T01:21:47;10.60;;;3.63;;
71187;SDS011;58893;53.130;8.158;2022-11-11T01:24:12;6.13;;;3.57;;
71187;SDS011;58893;53.130;8.158;2022-11-11T01:26:38;8.10;;;3.70;;
71187;SDS011;58893;53.130;8.158;2022-11-11T01:29:04;10.97;;;3.30;;
71187;SDS011;58893;53.130;8.158;2022-11-11T01:31:29;9.17;;;3.67;;
71187;SDS011;58893;53.130;8.158;2022-11-11T01:33:55;9.67;;;4.90;;
71187;SDS011;58893;53.130;8.158;2022-11-11T01:36:25;13.67;;;4.23;;
71187;SDS011;58893;53.130;8.158;2022-11-11T01:38:55;9.57;;;3.97;;
71187;SDS011;58893;53.130;8.158;2022-11-11T01:41:24;15.00;;;4.50;;
71187;SDS011;58893;53.130;8.158;2022-11-11T01:44:37;5.20;;;3.40;;
71187;SDS011;58893;53.130;8.158;2022-11-11T01:47:03;12.10;;;4.43;;
71187;SDS011;58893;53.130;8.158;2022-11-11T01:52:26;7.73;;;3.70;;
71187;SDS011;58893;53.130;8.158;2022-11-11T01:55:12;13.03;;;4.50;;
71187;SDS011;58893;53.130;8.158;2022-11-11T01:57:45;8.87;;;3.97;;
71187;SDS011;58893;53.130;8.158;2022-11-11T02:00:16;14.10;;;4.37;;
71187;SDS011;58893;53.130;8.158;2022-11-11T02:02:51;16.23;;;5.03;;
71187;SDS011;58893;53.130;8.158;2022-11-11T02:05:20;9.37;;;5.10;;
71187;SDS011;58893;53.130;8.158;2022-11-11T02:08:09;13.20;;;4.70;;
71187;SDS011;58893;53.130;8.158;2022-11-11T02:10:39;8.57;;;4.40;;
71187;SDS011;58893;53.130;8.158;2022-11-11T02:13:12;19.50;;;4.53;;
71187;SDS011;58893;53.130;8.158;2022-11-11T02:15:57;7.90;;;4.67;;
71187;SDS011;58893;53.130;8.158;2022-11-11T02:18:23;13.00;;;4.90;;
71187;SDS011;58893;53.130;8.158;2022-11-11T02:20:50;8.53;;;4.30;;
71187;SDS011;58893;53.130;8.158;2022-11-11T02:26:17;9.37;;;4.37;;
71187;SDS011;58893;53.130;8.158;2022-11-11T02:28:43;9.13;;;4.30;;
71187;SDS011;58893;53.130;8.158;2022-11-11T02:31:10;19.33;;;5.90;;
71187;SDS011;58893;53.130;8.158;2022-11-11T02:33:37;12.10;;;4.47;;
71187;SDS011;58893;53.130;8.158;2022-11-11T02:36:03;12.73;;;5.70;;
71187;SDS011;58893;53.130;8.158;2022-11-11T02:38:30;7.10;;;4.80;;
71187;SDS011;58893;53.130;8.158;2022-11-11T02:40:56;9.60;;;5.37;;
71187;SDS011;58893;53.130;8.158;2022-11-11T02:43:40;8.10;;;4.60;;
71187;SDS011;58893;53.130;8.158;2022-11-11T02:46:06;8.57;;;4.87;;
71187;SDS011;58893;53.130;8.158;2022-11-11T02:48:32;15.73;;;5.80;;
71187;SDS011;58893;53.130;8.158;2022-11-11T02:50:58;13.33;;;4.63;;
71187;SDS011;58893;53.130;8.158;2022-11-11T02:53:24;8.90;;;5.30;;
71187;SDS011;58893;53.130;8.158;2022-11-11T02:55:49;10.60;;;4.53;;
71187;SDS011;58893;53.130;8.158;2022-11-11T02:58:15;12.20;;;5.90;;
71187;SDS011;58893;53.130;8.158;2022-11-11T03:00:41;15.50;;;5.10;;
71187;SDS011;58893;53.130;8.158;2022-11-11T03:03:07;10.93;;;4.57;;
71187;SDS011;58893;53.130;8.158;2022-11-11T03:05:34;14.70;;;4.57;;
71187;SDS011;58893;53.130;8.158;2022-11-11T03:08:00;15.97;;;4.37;;
71187;SDS011;58893;53.130;8.158;2022-11-11T03:10:26;8.77;;;4.83;;
71187;SDS011;58893;53.130;8.158;2022-11-11T03:12:51;14.60;;;6.20;;
71187;SDS011;58893;53.130;8.158;2022-11-11T03:15:17;12.67;;;5.90;;
71187;SDS011;58893;53.130;8.158;2022-11-11T03:17:43;10.77;;;5.50;;
71187;SDS011;58893;53.130;8.158;2022-11-11T03:20:09;16.27;;;5.50;;
71187;SDS011;58893;53.130;8.158;2022-11-11T03:22:59;14.70;;;5.40;;
71187;SDS011;58893;53.130;8.158;2022-11-11T03:25:24;8.53;;;5.47;;
71187;SDS011;58893;53.130;8.158;2022-11-11T03:28:20;14.40;;;5.80;;
71187;SDS011;58893;53.130;8.158;2022-11-11T03:30:49;9.17;;;4.70;;
71187;SDS011;58893;53.130;8.158;2022-11-11T03:33:15;8.80;;;4.60;;
71187;SDS011;58893;53.130;8.158;2022-11-11T03:35:43;15.73;;;5.30;;
71187;SDS011;58893;53.130;8.158;2022-11-11T03:38:11;16.40;;;5.27;;
71187;SDS011;58893;53.130;8.158;2022-11-11T03:40:44;12.70;;;5.37;;
71187;SDS011;58893;53.130;8.158;2022-11-11T03:43:11;23.50;;;6.13;;
71187;SDS011;58893;53.130;8.158;2022-11-11T03:45:38;9.43;;;5.10;;
71187;SDS011;58893;53.130;8.158;2022-11-11T03:48:03;13.40;;;5.23;;
71187;SDS011;58893;53.130;8.158;2022-11-11T03:50:30;10.77;;;5.27;;
71187;SDS011;58893;53.130;8.158;2022-11-11T03:52:55;12.93;;;5.63;;
71187;SDS011;58893;53.130;8.158;2022-11-11T03:55:21;10.30;;;6.10;;
71187;SDS011;58893;53.130;8.158;2022-11-11T03:57:47;17.70;;;7.30;;
71187;SDS011;58893;53.130;8.158;2022-11-11T04:00:13;9.40;;;5.40;;
71187;SDS011;58893;53.130;8.158;2022-11-11T04:02:44;17.13;;;6.27;;
71187;SDS011;58893;53.130;8.158;2022-11-11T04:05:29;11.90;;;5.33;;
71187;SDS011;58893;53.130;8.158;2022-11-11T04:08:14;12.20;;;6.37;;
71187;SDS011;58893;53.130;8.158;2022-11-11T04:11:02;9.73;;;5.70;;
71187;SDS011;58893;53.130;8.158;2022-11-11T04:13:31;15.97;;;5.60;;
71187;SDS011;58893;53.130;8.158;2022-11-11T04:16:16;10.00;;;5.30;;
71187;SDS011;58893;53.130;8.158;2022-11-11T04:18:42;20.43;;;6.80;;
71187;SDS011;58893;53.130;8.158;2022-11-11T04:21:26;15.00;;;6.23;;
71187;SDS011;58893;53.130;8.158;2022-11-11T04:27:05;17.27;;;7.13;;
71187;SDS011;58893;53.130;8.158;2022-11-11T04:29:32;16.57;;;6.70;;
71187;SDS011;58893;53.130;8.158;2022-11-11T04:34:49;8.97;;;5.90;;
71187;SDS011;58893;53.130;8.158;2022-11-11T04:37:16;10.20;;;6.50;;
71187;SDS011;58893;53.130;8.158;2022-11-11T04:39:43;20.07;;;6.90;;
71187;SDS011;58893;53.130;8.158;2022-11-11T04:42:27;14.47;;;6.03;;
71187;SDS011;58893;53.130;8.158;2022-11-11T04:44:54;16.33;;;7.50;;
71187;SDS011;58893;53.130;8.158;2022-11-11T04:47:51;14.80;;;5.80;;
71187;SDS011;58893;53.130;8.158;2022-11-11T04:50:31;9.67;;;5.80;;
71187;SDS011;58893;53.130;8.158;2022-11-11T04:52:57;11.50;;;6.60;;
71187;SDS011;58893;53.130;8.158;2022-11-11T04:55:23;22.20;;;8.70;;
71187;SDS011;58893;53.130;8.158;2022-11-11T04:58:08;14.27;;;7.00;;
71187;SDS011;58893;53.130;8.158;2022-11-11T05:00:34;22.63;;;7.50;;
71187;SDS011;58893;53.130;8.158;2022-11-11T05:03:00;23.03;;;7.33;;
71187;SDS011;58893;53.130;8.158;2022-11-11T05:05:43;16.13;;;7.00;;
71187;SDS011;58893;53.130;8.158;2022-11-11T05:08:47;19.30;;;7.60;;
71187;SDS011;58893;53.130;8.158;2022-11-11T05:11:20;14.00;;;6.40;;
71187;SDS011;58893;53.130;8.158;2022-11-11T05:13:47;14.70;;;7.90;;
71187;SDS011;58893;53.130;8.158;2022-11-11T05:16:32;21.77;;;8.10;;
71187;SDS011;58893;53.130;8.158;2022-11-11T05:19:21;25.53;;;8.13;;
71187;SDS011;58893;53.130;8.158;2022-11-11T05:22:10;15.77;;;6.90;;
71187;SDS011;58893;53.130;8.158;2022-11-11T05:24:37;14.23;;;7.17;;
71187;SDS011;58893;53.130;8.158;2022-11-11T05:27:21;20.60;;;9.07;;
71187;SDS011;58893;53.130;8.158;2022-11-11T05:29:47;16.30;;;8.23;;
71187;SDS011;58893;53.130;8.158;2022-11-11T05:32:18;17.20;;;7.90;;
71187;SDS011;58893;53.130;8.158;2022-11-11T05:34:45;20.43;;;8.13;;
71187;SDS011;58893;53.130;8.158;2022-11-11T05:37:11;17.07;;;7.90;;
71187;SDS011;58893;53.130;8.158;2022-11-11T05:39:37;18.13;;;8.57;;
71187;SDS011;58893;53.130;8.158;2022-11-11T05:42:02;15.63;;;8.93;;
71187;SDS011;58893;53.130;8.158;2022-11-11T05:44:29;22.07;;;8.67;;
71187;SDS011;58893;53.130;8.158;2022-11-11T05:46:55;17.97;;;10.23;;
71187;SDS011;58893;53.130;8.158;2022-11-11T05:49:20;20.53;;;9.00;;
71187;SDS011;58893;53.130;8.158;2022-11-11T05:51:46;17.67;;;7.90;;
71187;SDS011;58893;53.130;8.158;2022-11-11T05:54:12;18.93;;;9.30;;
71187;SDS011;58893;53.130;8.158;2022-11-11T05:56:38;20.80;;;9.03;;
71187;SDS011;58893;53.130;8.158;2022-11-11T05:59:05;18.83;;;9.97;;
71187;SDS011;58893;53.130;8.158;2022-11-11T06:01:32;23.40;;;9.20;;
71187;SDS011;58893;53.130;8.158;2022-11-11T06:03:58;22.33;;;9.67;;
71187;SDS011;58893;53.130;8.158;2022-11-11T06:06:24;25.80;;;9.17;;
71187;SDS011;58893;53.130;8.158;2022-11-11T06:08:50;18.97;;;10.23;;
71187;SDS011;58893;53.130;8.158;2022-11-11T06:11:16;23.63;;;11.50;;
71187;SDS011;58893;53.130;8.158;2022-11-11T06:13:41;20.87;;;10.37;;
71187;SDS011;58893;53.130;8.158;2022-11-11T06:16:07;22.70;;;9.23;;
71187;SDS011;58893;53.130;8.158;2022-11-11T06:18:33;31.27;;;10.63;;
71187;SDS011;58893;53.130;8.158;2022-11-11T06:20:58;23.30;;;10.07;;
71187;SDS011;58893;53.130;8.158;2022-11-11T06:23:25;21.20;;;10.60;;
71187;SDS011;58893;53.130;8.158;2022-11-11T06:25:52;21.60;;;10.10;;
71187;SDS011;58893;53.130;8.158;2022-11-11T06:28:36;17.40;;;9.43;;
71187;SDS011;58893;53.130;8.158;2022-11-11T06:31:05;23.20;;;10.53;;
71187;SDS011;58893;53.130;8.158;2022-11-11T06:33:35;24.73;;;9.50;;
71187;SDS011;58893;53.130;8.158;2022-11-11T06:36:02;19.27;;;9.40;;
71187;SDS011;58893;53.130;8.158;2022-11-11T06:38:29;25.73;;;10.50;;
71187;SDS011;58893;53.130;8.158;2022-11-11T06:40:55;28.80;;;10.27;;
71187;SDS011;58893;53.130;8.158;2022-11-11T06:43:21;25.87;;;10.30;;
71187;SDS011;58893;53.130;8.158;2022-11-11T06:45:51;25.77;;;11.50;;
71187;SDS011;58893;53.130;8.158;2022-11-11T06:48:17;27.40;;;10.60;;
71187;SDS011;58893;53.130;8.158;2022-11-11T06:50:43;17.87;;;9.80;;
71187;SDS011;58893;53.130;8.158;2022-11-11T06:53:10;26.87;;;10.90;;
71187;SDS011;58893;53.130;8.158;2022-11-11T06:55:37;25.70;;;9.73;;
71187;SDS011;58893;53.130;8.158;2022-11-11T06:58:07;25.77;;;11.10;;
71187;SDS011;58893;53.130;8.158;2022-11-11T07:00:37;21.87;;;9.80;;
71187;SDS011;58893;53.130;8.158;2022-11-11T07:03:03;25.70;;;9.90;;
71187;SDS011;58893;53.130;8.158;2022-11-11T07:05:31;24.97;;;9.80;;
71187;SDS011;58893;53.130;8.158;2022-11-11T07:08:00;25.33;;;11.47;;
71187;SDS011;58893;53.130;8.158;2022-11-11T07:10:30;17.37;;;9.70;;
71187;SDS011;58893;53.130;8.158;2022-11-11T07:12:57;25.00;;;10.60;;
71187;SDS011;58893;53.130;8.158;2022-11-11T07:15:23;24.37;;;10.80;;
71187;SDS011;58893;53.130;8.158;2022-11-11T07:17:48;16.20;;;9.10;;
71187;SDS011;58893;53.130;8.158;2022-11-11T07:20:14;22.37;;;9.77;;
71187;SDS011;58893;53.130;8.158;2022-11-11T07:22:40;18.10;;;9.13;;
71187;SDS011;58893;53.130;8.158;2022-11-11T07:25:05;19.67;;;10.27;;
71187;SDS011;58893;53.130;8.158;2022-11-11T07:27:31;16.57;;;9.30;;
71187;SDS011;58893;53.130;8.158;2022-11-11T07:30:00;16.70;;;8.07;;
71187;SDS011;58893;53.130;8.158;2022-11-11T07:32:26;21.70;;;10.20;;
71187;SDS011;58893;53.130;8.158;2022-11-11T07:34:52;22.77;;;10.40;;
71187;SDS011;58893;53.130;8.158;2022-11-11T07:37:17;25.33;;;8.97;;
71187;SDS011;58893;53.130;8.158;2022-11-11T07:39:43;17.77;;;9.57;;
71187;SDS011;58893;53.130;8.158;2022-11-11T07:42:09;19.40;;;9.30;;
71187;SDS011;58893;53.130;8.158;2022-11-11T07:44:35;16.47;;;8.63;;
71187;SDS011;58893;53.130;8.158;2022-11-11T07:47:00;17.23;;;9.90;;
71187;SDS011;58893;53.130;8.158;2022-11-11T07:49:26;28.03;;;8.60;;
71187;SDS011;58893;53.130;8.158;2022-11-11T07:51:51;21.57;;;9.53;;
71187;SDS011;58893;53.130;8.158;2022-11-11T07:54:17;18.60;;;8.80;;
71187;SDS011;58893;53.130;8.158;2022-11-11T07:56:43;16.17;;;9.13;;
71187;SDS011;58893;53.130;8.158;2022-11-11T07:59:08;17.00;;;9.40;;
71187;SDS011;58893;53.130;8.158;2022-11-11T08:01:34;19.67;;;8.70;;
71187;SDS011;58893;53.130;8.158;2022-11-11T08:03:59;21.50;;;8.87;;
71187;SDS011;58893;53.130;8.158;2022-11-11T08:06:25;19.77;;;8.77;;
71187;SDS011;58893;53.130;8.158;2022-11-11T08:08:51;22.27;;;9.50;;
71187;SDS011;58893;53.130;8.158;2022-11-11T08:11:16;18.27;;;9.93;;
71187;SDS011;58893;53.130;8.158;2022-11-11T08:14:02;21.37;;;10.03;;
71187;SDS011;58893;53.130;8.158;2022-11-11T08:16:27;21.07;;;9.57;;
71187;SDS011;58893;53.130;8.158;2022-11-11T08:18:53;25.13;;;9.80;;
71187;SDS011;58893;53.130;8.158;2022-11-11T08:21:19;26.87;;;10.60;;
71187;SDS011;58893;53.130;8.158;2022-11-11T08:23:44;19.37;;;9.30;;
71187;SDS011;58893;53.130;8.158;2022-11-11T08:26:10;25.97;;;10.63;;
71187;SDS011;58893;53.130;8.158;2022-11-11T08:28:36;31.80;;;10.60;;
71187;SDS011;58893;53.130;8.158;2022-11-11T08:31:01;19.83;;;10.20;;
71187;SDS011;58893;53.130;8.158;2022-11-11T08:33:27;22.27;;;9.97;;
71187;SDS011;58893;53.130;8.158;2022-11-11T08:35:54;23.07;;;8.57;;
71187;SDS011;58893;53.130;8.158;2022-11-11T08:38:23;26.83;;;10.60;;
71187;SDS011;58893;53.130;8.158;2022-11-11T08:40:49;22.70;;;10.17;;
71187;SDS011;58893;53.130;8.158;2022-11-11T08:43:15;19.17;;;10.07;;
71187;SDS011;58893;53.130;8.158;2022-11-11T08:45:41;20.80;;;11.50;;
71187;SDS011;58893;53.130;8.158;2022-11-11T08:48:07;26.33;;;9.73;;
71187;SDS011;58893;53.130;8.158;2022-11-11T08:50:35;22.53;;;10.77;;
71187;SDS011;58893;53.130;8.158;2022-11-11T08:53:02;17.60;;;9.93;;
71187;SDS011;58893;53.130;8.158;2022-11-11T08:55:28;17.97;;;10.07;;
71187;SDS011;58893;53.130;8.158;2022-11-11T08:57:57;17.60;;;10.13;;
71187;SDS011;58893;53.130;8.158;2022-11-11T09:00:23;20.10;;;10.47;;
71187;SDS011;58893;53.130;8.158;2022-11-11T09:02:49;22.17;;;10.53;;
71187;SDS011;58893;53.130;8.158;2022-11-11T09:05:15;19.77;;;11.63;;
71187;SDS011;58893;53.130;8.158;2022-11-11T09:07:41;39.73;;;11.50;;
71187;SDS011;58893;53.130;8.158;2022-11-11T09:10:06;25.10;;;11.30;;
71187;SDS011;58893;53.130;8.158;2022-11-11T09:12:33;22.13;;;10.57;;
71187;SDS011;58893;53.130;8.158;2022-11-11T09:14:58;23.87;;;9.73;;
71187;SDS011;58893;53.130;8.158;2022-11-11T09:17:25;29.30;;;10.93;;
71187;SDS011;58893;53.130;8.158;2022-11-11T09:19:51;30.50;;;11.43;;
71187;SDS011;58893;53.130;8.158;2022-11-11T09:22:17;23.33;;;11.10;;
71187;SDS011;58893;53.130;8.158;2022-11-11T09:24:42;25.73;;;11.20;;
71187;SDS011;58893;53.130;8.158;2022-11-11T09:27:11;26.83;;;11.07;;
71187;SDS011;58893;53.130;8.158;2022-11-11T09:29:37;26.83;;;12.47;;
71187;SDS011;58893;53.130;8.158;2022-11-11T09:32:03;23.20;;;11.63;;
71187;SDS011;58893;53.130;8.158;2022-11-11T09:34:29;25.37;;;11.87;;
71187;SDS011;58893;53.130;8.158;2022-11-11T09:36:55;25.80;;;10.70;;
71187;SDS011;58893;53.130;8.158;2022-11-11T09:39:21;20.43;;;10.40;;
71187;SDS011;58893;53.130;8.158;2022-11-11T09:41:55;18.20;;;10.80;;
71187;SDS011;58893;53.130;8.158;2022-11-11T09:49:37;22.53;;;11.07;;
71187;SDS011;58893;53.130;8.158;2022-11-11T09:52:30;24.23;;;10.77;;
71187;SDS011;58893;53.130;8.158;2022-11-11T09:57:36;27.50;;;11.77;;
71187;SDS011;58893;53.130;8.158;2022-11-11T10:00:05;24.70;;;11.87;;
71187;SDS011;58893;53.130;8.158;2022-11-11T10:02:42;28.10;;;11.60;;
71187;SDS011;58893;53.130;8.158;2022-11-11T10:08:16;21.67;;;11.83;;
71187;SDS011;58893;53.130;8.158;2022-11-11T10:10:58;23.43;;;11.50;;
71187;SDS011;58893;53.130;8.158;2022-11-11T10:13:28;27.27;;;12.27;;
71187;SDS011;58893;53.130;8.158;2022-11-11T10:18:52;30.03;;;11.20;;
71187;SDS011;58893;53.130;8.158;2022-11-11T10:21:35;24.30;;;10.50;;
71187;SDS011;58893;53.130;8.158;2022-11-11T10:24:11;26.17;;;11.73;;
71187;SDS011;58893;53.130;8.158;2022-11-11T10:26:41;21.00;;;10.00;;
71187;SDS011;58893;53.130;8.158;2022-11-11T10:29:17;16.50;;;10.00;;
71187;SDS011;58893;53.130;8.158;2022-11-11T10:31:55;28.37;;;11.53;;
71187;SDS011;58893;53.130;8.158;2022-11-11T10:34:27;27.40;;;10.27;;
71187;SDS011;58893;53.130;8.158;2022-11-11T10:36:57;22.43;;;9.77;;
71187;SDS011;58893;53.130;8.158;2022-11-11T10:39:26;26.50;;;9.97;;
71187;SDS011;58893;53.130;8.158;2022-11-11T10:42:07;19.93;;;9.10;;
71187;SDS011;58893;53.130;8.158;2022-11-11T10:44:41;33.10;;;10.17;;
71187;SDS011;58893;53.130;8.158;2022-11-11T10:47:28;22.67;;;10.17;;
71187;SDS011;58893;53.130;8.158;2022-11-11T10:52:43;25.30;;;10.20;;
71187;SDS011;58893;53.130;8.158;2022-11-11T10:55:17;17.50;;;9.00;;
71187;SDS011;58893;53.130;8.158;2022-11-11T10:57:54;16.93;;;8.87;;
71187;SDS011;58893;53.130;8.158;2022-11-11T11:00:29;18.37;;;8.50;;
71187;SDS011;58893;53.130;8.158;2022-11-11T11:05:40;17.40;;;9.37;;
71187;SDS011;58893;53.130;8.158;2022-11-11T11:08:29;18.33;;;8.93;;
71187;SDS011;58893;53.130;8.158;2022-11-11T11:11:01;14.90;;;8.63;;
71187;SDS011;58893;53.130;8.158;2022-11-11T11:16:13;16.60;;;8.80;;
71187;SDS011;58893;53.130;8.158;2022-11-11T11:19:17;19.63;;;9.37;;
71187;SDS011;58893;53.130;8.158;2022-11-11T11:21:47;14.70;;;7.30;;
71187;SDS011;58893;53.130;8.158;2022-11-11T11:24:24;18.23;;;8.17;;
71187;SDS011;58893;53.130;8.158;2022-11-11T11:26:59;13.07;;;6.97;;
71187;SDS011;58893;53.130;8.158;2022-11-11T11:29:27;12.20;;;7.43;;
71187;SDS011;58893;53.130;8.158;2022-11-11T11:34:41;11.70;;;6.40;;
71187;SDS011;58893;53.130;8.158;2022-11-11T11:37:13;13.70;;;7.37;;
71187;SDS011;58893;53.130;8.158;2022-11-11T11:39:40;18.13;;;7.80;;
71187;SDS011;58893;53.130;8.158;2022-11-11T11:42:06;17.00;;;7.53;;
71187;SDS011;58893;53.130;8.158;2022-11-11T11:44:33;15.00;;;7.10;;
71187;SDS011;58893;53.130;8.158;2022-11-11T11:52:25;14.57;;;8.60;;
71187;SDS011;58893;53.130;8.158;2022-11-11T11:55:27;17.27;;;8.87;;
71187;SDS011;58893;53.130;8.158;2022-11-11T12:00:26;16.23;;;9.13;;
71187;SDS011;58893;53.130;8.158;2022-11-11T12:05:39;17.47;;;9.50;;
71187;SDS011;58893;53.130;8.158;2022-11-11T12:08:59;19.03;;;9.60;;
71187;SDS011;58893;53.130;8.158;2022-11-11T12:11:37;14.80;;;7.63;;
71187;SDS011;58893;53.130;8.158;2022-11-11T12:14:45;12.90;;;6.93;;
71187;SDS011;58893;53.130;8.158;2022-11-11T12:17:27;16.10;;;6.77;;
71187;SDS011;58893;53.130;8.158;2022-11-11T12:36:26;13.00;;;4.40;;
71187;SDS011;58893;53.130;8.158;2022-11-11T12:44:38;5.37;;;3.47;;
71187;SDS011;58893;53.130;8.158;2022-11-11T12:47:36;9.57;;;4.67;;
71187;SDS011;58893;53.130;8.158;2022-11-11T12:50:38;13.87;;;3.93;;
71187;SDS011;58893;53.130;8.158;2022-11-11T13:17:22;6.77;;;3.40;;
71187;SDS011;58893;53.130;8.158;2022-11-11T13:19:58;5.37;;;3.30;;
71187;SDS011;58893;53.130;8.158;2022-11-11T13:22:30;7.73;;;2.87;;
71187;SDS011;58893;53.130;8.158;2022-11-11T13:24:57;8.50;;;4.33;;
71187;SDS011;58893;53.130;8.158;2022-11-11T13:27:28;6.03;;;3.03;;
71187;SDS011;58893;53.130;8.158;2022-11-11T13:33:02;7.47;;;3.00;;
71187;SDS011;58893;53.130;8.158;2022-11-11T13:35:41;11.70;;;3.40;;
71187;SDS011;58893;53.130;8.158;2022-11-11T13:38:10;7.13;;;3.37;;
71187;SDS011;58893;53.130;8.158;2022-11-11T13:41:07;8.13;;;3.20;;
71187;SDS011;58893;53.130;8.158;2022-11-11T13:46:11;5.90;;;3.20;;
71187;SDS011;58893;53.130;8.158;2022-11-11T13:48:53;9.07;;;3.23;;
71187;SDS011;58893;53.130;8.158;2022-11-11T13:53:52;12.70;;;4.03;;
71187;SDS011;58893;53.130;8.158;2022-11-11T13:56:28;4.87;;;2.90;;
71187;SDS011;58893;53.130;8.158;2022-11-11T13:59:06;6.00;;;2.83;;
71187;SDS011;58893;53.130;8.158;2022-11-11T14:01:40;5.53;;;2.70;;
71187;SDS011;58893;53.130;8.158;2022-11-11T14:04:06;5.40;;;2.63;;
71187;SDS011;58893;53.130;8.158;2022-11-11T14:08:59;14.70;;;3.10;;
71187;SDS011;58893;53.130;8.158;2022-11-11T14:13:57;4.97;;;2.93;;
71187;SDS011;58893;53.130;8.158;2022-11-11T14:21:53;5.43;;;2.97;;
71187;SDS011;58893;53.130;8.158;2022-11-11T14:27:00;6.13;;;2.97;;
71187;SDS011;58893;53.130;8.158;2022-11-11T14:29:48;5.70;;;2.43;;
71187;SDS011;58893;53.130;8.158;2022-11-11T14:37:48;4.17;;;2.53;;
71187;SDS011;58893;53.130;8.158;2022-11-11T14:40:27;10.43;;;2.70;;
71187;SDS011;58893;53.130;8.158;2022-11-11T14:42:54;5.40;;;2.47;;
71187;SDS011;58893;53.130;8.158;2022-11-11T14:47:55;3.47;;;2.70;;
71187;SDS011;58893;53.130;8.158;2022-11-11T14:53:39;3.23;;;2.07;;
71187;SDS011;58893;53.130;8.158;2022-11-11T14:55:53;5.50;;;2.03;;
71187;SDS011;58893;53.130;8.158;2022-11-11T14:58:20;13.97;;;3.00;;
71187;SDS011;58893;53.130;8.158;2022-11-11T15:00:51;3.37;;;2.13;;
71187;SDS011;58893;53.130;8.158;2022-11-11T15:03:38;11.83;;;2.40;;
71187;SDS011;58893;53.130;8.158;2022-11-11T15:06:13;5.47;;;2.30;;
71187;SDS011;58893;53.130;8.158;2022-11-11T15:08:53;3.60;;;2.17;;
71187;SDS011;58893;53.130;8.158;2022-11-11T15:11:45;4.27;;;2.23;;
71187;SDS011;58893;53.130;8.158;2022-11-11T15:17:25;4.73;;;2.33;;
71187;SDS011;58893;53.130;8.158;2022-11-11T15:34:20;3.33;;;2.67;;
71187;SDS011;58893;53.130;8.158;2022-11-11T15:37:24;4.53;;;2.33;;
71187;SDS011;58893;53.130;8.158;2022-11-11T15:39:51;14.67;;;2.40;;
71187;SDS011;58893;53.130;8.158;2022-11-11T15:44:58;7.00;;;2.50;;
71187;SDS011;58893;53.130;8.158;2022-11-11T15:47:28;2.90;;;2.10;;
71187;SDS011;58893;53.130;8.158;2022-11-11T15:49:58;9.77;;;2.80;;
71187;SDS011;58893;53.130;8.158;2022-11-11T15:52:25;4.03;;;2.30;;
71187;SDS011;58893;53.130;8.158;2022-11-11T15:54:56;3.10;;;1.83;;
71187;SDS011;58893;53.130;8.158;2022-11-11T15:57:26;5.77;;;2.80;;
71187;SDS011;58893;53.130;8.158;2022-11-11T15:59:53;5.17;;;2.97;;
71187;SDS011;58893;53.130;8.158;2022-11-11T16:02:20;3.43;;;2.40;;
71187;SDS011;58893;53.130;8.158;2022-11-11T16:04:58;2.43;;;1.43;;
71187;SDS011;58893;53.130;8.158;2022-11-11T16:07:43;3.30;;;2.33;;
71187;SDS011;58893;53.130;8.158;2022-11-11T16:12:55;4.00;;;2.27;;
71187;SDS011;58893;53.130;8.158;2022-11-11T16:17:53;8.97;;;2.70;;
71187;SDS011;58893;53.130;8.158;2022-11-11T16:20:27;7.97;;;3.40;;
71187;SDS011;58893;53.130;8.158;2022-11-11T16:23:01;6.87;;;2.50;;
71187;SDS011;58893;53.130;8.158;2022-11-11T16:25:31;6.97;;;3.10;;
71187;SDS011;58893;53.130;8.158;2022-11-11T16:27:57;8.80;;;2.90;;
71187;SDS011;58893;53.130;8.158;2022-11-11T16:30:33;10.70;;;3.00;;
71187;SDS011;58893;53.130;8.158;2022-11-11T16:33:01;13.77;;;3.70;;
71187;SDS011;58893;53.130;8.158;2022-11-11T16:38:04;6.47;;;3.50;;
71187;SDS011;58893;53.130;8.158;2022-11-11T16:45:48;8.23;;;2.47;;
71187;SDS011;58893;53.130;8.158;2022-11-11T16:48:42;11.23;;;3.07;;
71187;SDS011;58893;53.130;8.158;2022-11-11T16:51:06;10.73;;;2.53;;
71187;SDS011;58893;53.130;8.158;2022-11-11T16:53:37;5.93;;;3.23;;
71187;SDS011;58893;53.130;8.158;2022-11-11T16:56:17;5.07;;;2.50;;
71187;SDS011;58893;53.130;8.158;2022-11-11T16:59:02;4.83;;;2.57;;
71187;SDS011;58893;53.130;8.158;2022-11-11T17:01:39;7.60;;;3.20;;
71187;SDS011;58893;53.130;8.158;2022-11-11T17:04:07;3.80;;;2.00;;
71187;SDS011;58893;53.130;8.158;2022-11-11T17:06:46;9.27;;;3.23;;
71187;SDS011;58893;53.130;8.158;2022-11-11T17:11:54;7.63;;;2.60;;
71187;SDS011;58893;53.130;8.158;2022-11-11T17:14:20;4.00;;;2.40;;
71187;SDS011;58893;53.130;8.158;2022-11-11T17:16:46;8.80;;;3.60;;
71187;SDS011;58893;53.130;8.158;2022-11-11T17:19:12;4.43;;;2.37;;
71187;SDS011;58893;53.130;8.158;2022-11-11T17:21:38;6.20;;;3.00;;
71187;SDS011;58893;53.130;8.158;2022-11-11T17:24:03;9.50;;;3.03;;
71187;SDS011;58893;53.130;8.158;2022-11-11T17:26:29;8.73;;;2.57;;
71187;SDS011;58893;53.130;8.158;2022-11-11T17:28:55;3.20;;;2.33;;
71187;SDS011;58893;53.130;8.158;2022-11-11T17:31:21;4.13;;;2.50;;
71187;SDS011;58893;53.130;8.158;2022-11-11T17:33:50;3.60;;;2.60;;
71187;SDS011;58893;53.130;8.158;2022-11-11T17:36:16;5.67;;;3.33;;
71187;SDS011;58893;53.130;8.158;2022-11-11T17:38:41;6.87;;;2.80;;
71187;SDS011;58893;53.130;8.158;2022-11-11T17:41:07;6.73;;;3.30;;
71187;SDS011;58893;53.130;8.158;2022-11-11T17:43:37;8.83;;;3.43;;